sensor_id;sensor_type;location;lat;lon;timestamp;P1;durP1;ratioP1;P2;durP2;ratioP2
61385;SDS011;47256;18.904;-99.054;2022-12-07T00:01:43;44.72;;;7.95;;
61385;SDS011;47256;18.904;-99.054;2022-12-07T00:04:12;22.90;;;7.90;;
61385;SDS011;47256;18.904;-99.054;2022-12-07T00:06:42;27.05;;;7.95;;
61385;SDS011;47256;18.904;-99.054;2022-12-07T00:09:14;27.70;;;7.38;;
61385;SDS011;47256;18.904;-99.054;2022-12-07T00:11:43;14.43;;;6.60;;
61385;SDS011;47256;18.904;-99.054;2022-12-07T00:14:16;21.08;;;6.97;;
61385;SDS011;47256;18.904;-99.054;2022-12-07T00:16:44;16.23;;;6.28;;
61385;SDS011;47256;18.904;-99.054;2022-12-07T00:19:12;22.10;;;6.75;;
61385;SDS011;47256;18.904;-99.054;2022-12-07T00:21:40;12.40;;;6.38;;
61385;SDS011;47256;18.904;-99.054;2022-12-07T00:24:09;23.63;;;6.63;;
61385;SDS011;47256;18.904;-99.054;2022-12-07T00:26:39;17.27;;;6.63;;
61385;SDS011;47256;18.904;-99.054;2022-12-07T00:29:18;17.60;;;5.68;;
61385;SDS011;47256;18.904;-99.054;2022-12-07T00:31:47;16.85;;;6.18;;
61385;SDS011;47256;18.904;-99.054;2022-12-07T00:34:15;10.13;;;5.13;;
61385;SDS011;47256;18.904;-99.054;2022-12-07T00:36:44;13.38;;;5.13;;
61385;SDS011;47256;18.904;-99.054;2022-12-07T00:39:12;9.68;;;5.47;;
61385;SDS011;47256;18.904;-99.054;2022-12-07T00:41:40;11.20;;;5.70;;
61385;SDS011;47256;18.904;-99.054;2022-12-07T00:44:07;16.02;;;5.88;;
61385;SDS011;47256;18.904;-99.054;2022-12-07T00:46:35;11.02;;;6.25;;
61385;SDS011;47256;18.904;-99.054;2022-12-07T00:49:04;21.25;;;6.72;;
61385;SDS011;47256;18.904;-99.054;2022-12-07T00:51:34;14.02;;;6.05;;
61385;SDS011;47256;18.904;-99.054;2022-12-07T00:54:04;12.40;;;6.50;;
61385;SDS011;47256;18.904;-99.054;2022-12-07T00:56:32;10.52;;;5.68;;
61385;SDS011;47256;18.904;-99.054;2022-12-07T00:59:02;12.68;;;6.57;;
61385;SDS011;47256;18.904;-99.054;2022-12-07T01:01:31;18.40;;;6.55;;
61385;SDS011;47256;18.904;-99.054;2022-12-07T01:04:02;11.27;;;5.65;;
61385;SDS011;47256;18.904;-99.054;2022-12-07T01:06:30;15.52;;;5.75;;
61385;SDS011;47256;18.904;-99.054;2022-12-07T01:08:57;6.88;;;5.30;;
61385;SDS011;47256;18.904;-99.054;2022-12-07T01:11:26;13.45;;;6.65;;
61385;SDS011;47256;18.904;-99.054;2022-12-07T01:13:59;11.10;;;6.03;;
61385;SDS011;47256;18.904;-99.054;2022-12-07T01:16:29;10.98;;;5.00;;
61385;SDS011;47256;18.904;-99.054;2022-12-07T01:18:58;8.38;;;5.20;;
61385;SDS011;47256;18.904;-99.054;2022-12-07T01:21:27;11.05;;;6.50;;
61385;SDS011;47256;18.904;-99.054;2022-12-07T01:23:59;18.08;;;5.07;;
61385;SDS011;47256;18.904;-99.054;2022-12-07T01:26:27;12.35;;;5.97;;
61385;SDS011;47256;18.904;-99.054;2022-12-07T01:28:59;23.70;;;6.57;;
61385;SDS011;47256;18.904;-99.054;2022-12-07T01:31:27;14.98;;;5.72;;
61385;SDS011;47256;18.904;-99.054;2022-12-07T01:33:57;11.75;;;5.78;;
61385;SDS011;47256;18.904;-99.054;2022-12-07T01:36:29;10.43;;;5.45;;
61385;SDS011;47256;18.904;-99.054;2022-12-07T01:38:59;12.13;;;6.25;;
61385;SDS011;47256;18.904;-99.054;2022-12-07T01:41:32;20.77;;;5.82;;
61385;SDS011;47256;18.904;-99.054;2022-12-07T01:44:11;13.95;;;7.13;;
61385;SDS011;47256;18.904;-99.054;2022-12-07T01:47:00;11.87;;;6.33;;
61385;SDS011;47256;18.904;-99.054;2022-12-07T01:49:43;20.83;;;7.35;;
61385;SDS011;47256;18.904;-99.054;2022-12-07T01:54:51;25.42;;;9.00;;
61385;SDS011;47256;18.904;-99.054;2022-12-07T01:57:24;19.17;;;8.25;;
61385;SDS011;47256;18.904;-99.054;2022-12-07T01:59:55;17.50;;;8.75;;
61385;SDS011;47256;18.904;-99.054;2022-12-07T02:02:53;14.23;;;8.75;;
61385;SDS011;47256;18.904;-99.054;2022-12-07T02:05:29;13.68;;;9.40;;
61385;SDS011;47256;18.904;-99.054;2022-12-07T02:08:00;17.20;;;8.32;;
61385;SDS011;47256;18.904;-99.054;2022-12-07T02:10:33;16.38;;;7.95;;
61385;SDS011;47256;18.904;-99.054;2022-12-07T02:13:16;19.85;;;8.05;;
61385;SDS011;47256;18.904;-99.054;2022-12-07T02:21:58;13.15;;;7.28;;
61385;SDS011;47256;18.904;-99.054;2022-12-07T02:25:04;17.52;;;7.53;;
61385;SDS011;47256;18.904;-99.054;2022-12-07T02:28:34;26.13;;;7.18;;
61385;SDS011;47256;18.904;-99.054;2022-12-07T02:31:18;14.68;;;6.32;;
61385;SDS011;47256;18.904;-99.054;2022-12-07T02:34:08;23.35;;;7.53;;
61385;SDS011;47256;18.904;-99.054;2022-12-07T02:40:02;15.98;;;7.47;;
61385;SDS011;47256;18.904;-99.054;2022-12-07T02:43:02;73.93;;;10.13;;
61385;SDS011;47256;18.904;-99.054;2022-12-07T02:45:39;37.88;;;9.05;;
61385;SDS011;47256;18.904;-99.054;2022-12-07T02:48:17;49.22;;;9.93;;
61385;SDS011;47256;18.904;-99.054;2022-12-07T02:50:50;38.00;;;10.27;;
61385;SDS011;47256;18.904;-99.054;2022-12-07T02:53:29;25.27;;;10.43;;
61385;SDS011;47256;18.904;-99.054;2022-12-07T03:13:53;70.85;;;24.35;;
61385;SDS011;47256;18.904;-99.054;2022-12-07T03:16:43;46.92;;;19.75;;
61385;SDS011;47256;18.904;-99.054;2022-12-07T03:19:22;40.97;;;16.20;;
61385;SDS011;47256;18.904;-99.054;2022-12-07T03:22:02;54.00;;;18.15;;
61385;SDS011;47256;18.904;-99.054;2022-12-07T03:24:39;38.70;;;19.25;;
61385;SDS011;47256;18.904;-99.054;2022-12-07T03:27:27;32.08;;;17.60;;
61385;SDS011;47256;18.904;-99.054;2022-12-07T03:32:42;32.72;;;17.50;;
61385;SDS011;47256;18.904;-99.054;2022-12-07T03:38:15;42.35;;;19.05;;
61385;SDS011;47256;18.904;-99.054;2022-12-07T03:40:52;34.60;;;18.00;;
61385;SDS011;47256;18.904;-99.054;2022-12-07T03:43:31;43.10;;;19.05;;
61385;SDS011;47256;18.904;-99.054;2022-12-07T03:57:40;36.45;;;15.82;;
61385;SDS011;47256;18.904;-99.054;2022-12-07T04:00:10;38.00;;;17.27;;
61385;SDS011;47256;18.904;-99.054;2022-12-07T04:02:41;39.65;;;21.00;;
61385;SDS011;47256;18.904;-99.054;2022-12-07T04:05:09;38.67;;;19.63;;
61385;SDS011;47256;18.904;-99.054;2022-12-07T04:07:39;49.67;;;18.70;;
61385;SDS011;47256;18.904;-99.054;2022-12-07T04:10:08;32.67;;;15.02;;
61385;SDS011;47256;18.904;-99.054;2022-12-07T04:12:38;36.47;;;15.02;;
61385;SDS011;47256;18.904;-99.054;2022-12-07T04:15:07;55.40;;;18.38;;
61385;SDS011;47256;18.904;-99.054;2022-12-07T04:17:36;59.85;;;19.23;;
61385;SDS011;47256;18.904;-99.054;2022-12-07T04:20:07;27.95;;;13.25;;
61385;SDS011;47256;18.904;-99.054;2022-12-07T04:22:39;25.45;;;12.70;;
61385;SDS011;47256;18.904;-99.054;2022-12-07T04:25:08;32.15;;;13.15;;
61385;SDS011;47256;18.904;-99.054;2022-12-07T04:28:00;34.53;;;15.85;;
61385;SDS011;47256;18.904;-99.054;2022-12-07T04:30:33;48.40;;;18.92;;
61385;SDS011;47256;18.904;-99.054;2022-12-07T04:33:03;38.08;;;17.92;;
61385;SDS011;47256;18.904;-99.054;2022-12-07T04:35:31;42.05;;;15.70;;
61385;SDS011;47256;18.904;-99.054;2022-12-07T04:38:05;70.97;;;24.17;;
61385;SDS011;47256;18.904;-99.054;2022-12-07T04:40:35;87.53;;;31.30;;
61385;SDS011;47256;18.904;-99.054;2022-12-07T04:43:03;96.90;;;31.38;;
61385;SDS011;47256;18.904;-99.054;2022-12-07T04:45:32;44.88;;;21.98;;
61385;SDS011;47256;18.904;-99.054;2022-12-07T04:48:00;53.25;;;21.27;;
61385;SDS011;47256;18.904;-99.054;2022-12-07T04:50:33;41.28;;;18.38;;
61385;SDS011;47256;18.904;-99.054;2022-12-07T04:53:04;52.60;;;19.83;;
61385;SDS011;47256;18.904;-99.054;2022-12-07T04:55:39;38.38;;;16.02;;
61385;SDS011;47256;18.904;-99.054;2022-12-07T04:58:06;33.63;;;15.80;;
61385;SDS011;47256;18.904;-99.054;2022-12-07T05:00:40;38.97;;;17.23;;
61385;SDS011;47256;18.904;-99.054;2022-12-07T05:03:08;30.95;;;15.70;;
61385;SDS011;47256;18.904;-99.054;2022-12-07T05:05:36;32.70;;;17.08;;
61385;SDS011;47256;18.904;-99.054;2022-12-07T05:08:06;30.55;;;14.82;;
61385;SDS011;47256;18.904;-99.054;2022-12-07T05:10:34;27.15;;;12.43;;
61385;SDS011;47256;18.904;-99.054;2022-12-07T05:13:03;27.50;;;13.55;;
61385;SDS011;47256;18.904;-99.054;2022-12-07T05:15:30;31.40;;;14.73;;
61385;SDS011;47256;18.904;-99.054;2022-12-07T05:17:59;31.15;;;12.63;;
61385;SDS011;47256;18.904;-99.054;2022-12-07T05:20:26;21.60;;;8.95;;
61385;SDS011;47256;18.904;-99.054;2022-12-07T05:22:56;17.45;;;8.77;;
61385;SDS011;47256;18.904;-99.054;2022-12-07T05:25:25;17.35;;;8.45;;
61385;SDS011;47256;18.904;-99.054;2022-12-07T05:27:57;25.15;;;10.30;;
61385;SDS011;47256;18.904;-99.054;2022-12-07T05:30:26;21.42;;;11.15;;
61385;SDS011;47256;18.904;-99.054;2022-12-07T05:32:53;20.42;;;10.85;;
61385;SDS011;47256;18.904;-99.054;2022-12-07T05:35:21;26.73;;;10.23;;
61385;SDS011;47256;18.904;-99.054;2022-12-07T05:37:48;16.27;;;8.75;;
61385;SDS011;47256;18.904;-99.054;2022-12-07T05:40:19;23.92;;;8.70;;
61385;SDS011;47256;18.904;-99.054;2022-12-07T05:42:46;16.23;;;7.90;;
61385;SDS011;47256;18.904;-99.054;2022-12-07T05:45:13;17.70;;;8.43;;
61385;SDS011;47256;18.904;-99.054;2022-12-07T05:47:43;27.48;;;11.18;;
61385;SDS011;47256;18.904;-99.054;2022-12-07T05:50:13;21.08;;;9.73;;
61385;SDS011;47256;18.904;-99.054;2022-12-07T05:52:58;19.60;;;10.43;;
61385;SDS011;47256;18.904;-99.054;2022-12-07T05:55:28;34.15;;;9.68;;
61385;SDS011;47256;18.904;-99.054;2022-12-07T05:57:55;15.05;;;9.65;;
61385;SDS011;47256;18.904;-99.054;2022-12-07T06:00:43;20.55;;;9.38;;
61385;SDS011;47256;18.904;-99.054;2022-12-07T06:03:11;18.08;;;9.60;;
61385;SDS011;47256;18.904;-99.054;2022-12-07T06:05:43;19.15;;;10.48;;
61385;SDS011;47256;18.904;-99.054;2022-12-07T06:08:11;19.98;;;9.38;;
61385;SDS011;47256;18.904;-99.054;2022-12-07T06:10:38;16.63;;;9.30;;
61385;SDS011;47256;18.904;-99.054;2022-12-07T06:13:06;21.98;;;9.85;;
61385;SDS011;47256;18.904;-99.054;2022-12-07T06:15:37;23.35;;;11.10;;
61385;SDS011;47256;18.904;-99.054;2022-12-07T06:18:04;20.20;;;10.27;;
61385;SDS011;47256;18.904;-99.054;2022-12-07T06:20:31;15.43;;;8.73;;
61385;SDS011;47256;18.904;-99.054;2022-12-07T06:22:59;17.80;;;8.95;;
61385;SDS011;47256;18.904;-99.054;2022-12-07T06:25:26;16.08;;;8.52;;
61385;SDS011;47256;18.904;-99.054;2022-12-07T06:28:02;14.40;;;8.32;;
61385;SDS011;47256;18.904;-99.054;2022-12-07T06:30:29;11.27;;;8.43;;
61385;SDS011;47256;18.904;-99.054;2022-12-07T06:32:57;12.20;;;7.97;;
61385;SDS011;47256;18.904;-99.054;2022-12-07T06:35:24;14.18;;;7.68;;
61385;SDS011;47256;18.904;-99.054;2022-12-07T06:37:51;21.48;;;9.35;;
61385;SDS011;47256;18.904;-99.054;2022-12-07T06:40:19;15.57;;;8.82;;
61385;SDS011;47256;18.904;-99.054;2022-12-07T06:42:46;16.85;;;9.15;;
61385;SDS011;47256;18.904;-99.054;2022-12-07T06:45:13;21.45;;;8.25;;
61385;SDS011;47256;18.904;-99.054;2022-12-07T06:47:47;14.00;;;7.45;;
61385;SDS011;47256;18.904;-99.054;2022-12-07T06:50:14;21.08;;;9.43;;
61385;SDS011;47256;18.904;-99.054;2022-12-07T06:52:43;26.73;;;9.52;;
61385;SDS011;47256;18.904;-99.054;2022-12-07T06:55:12;19.50;;;6.53;;
61385;SDS011;47256;18.904;-99.054;2022-12-07T06:57:39;14.50;;;8.20;;
61385;SDS011;47256;18.904;-99.054;2022-12-07T07:00:06;16.92;;;8.65;;
61385;SDS011;47256;18.904;-99.054;2022-12-07T07:02:36;11.23;;;7.78;;
61385;SDS011;47256;18.904;-99.054;2022-12-07T07:05:05;18.15;;;6.95;;
61385;SDS011;47256;18.904;-99.054;2022-12-07T07:07:34;13.90;;;7.60;;
61385;SDS011;47256;18.904;-99.054;2022-12-07T07:10:01;13.82;;;8.43;;
61385;SDS011;47256;18.904;-99.054;2022-12-07T07:12:29;12.38;;;7.80;;
61385;SDS011;47256;18.904;-99.054;2022-12-07T07:14:57;14.70;;;8.32;;
61385;SDS011;47256;18.904;-99.054;2022-12-07T07:17:24;11.43;;;7.28;;
61385;SDS011;47256;18.904;-99.054;2022-12-07T07:19:54;13.18;;;7.85;;
61385;SDS011;47256;18.904;-99.054;2022-12-07T07:22:21;15.13;;;7.68;;
61385;SDS011;47256;18.904;-99.054;2022-12-07T07:24:48;14.40;;;7.97;;
61385;SDS011;47256;18.904;-99.054;2022-12-07T07:27:15;18.13;;;7.95;;
61385;SDS011;47256;18.904;-99.054;2022-12-07T07:29:50;13.95;;;9.63;;
61385;SDS011;47256;18.904;-99.054;2022-12-07T07:32:17;12.18;;;7.82;;
61385;SDS011;47256;18.904;-99.054;2022-12-07T07:34:44;13.23;;;7.95;;
61385;SDS011;47256;18.904;-99.054;2022-12-07T07:37:11;11.48;;;7.45;;
61385;SDS011;47256;18.904;-99.054;2022-12-07T07:39:39;16.65;;;8.52;;
61385;SDS011;47256;18.904;-99.054;2022-12-07T07:42:07;17.35;;;8.75;;
61385;SDS011;47256;18.904;-99.054;2022-12-07T07:44:34;17.48;;;7.72;;
61385;SDS011;47256;18.904;-99.054;2022-12-07T07:47:02;16.25;;;6.93;;
61385;SDS011;47256;18.904;-99.054;2022-12-07T07:49:32;10.00;;;6.70;;
61385;SDS011;47256;18.904;-99.054;2022-12-07T07:52:07;8.32;;;5.45;;
61385;SDS011;47256;18.904;-99.054;2022-12-07T07:54:34;10.30;;;7.10;;
61385;SDS011;47256;18.904;-99.054;2022-12-07T07:57:03;12.00;;;5.85;;
61385;SDS011;47256;18.904;-99.054;2022-12-07T07:59:30;8.70;;;5.38;;
61385;SDS011;47256;18.904;-99.054;2022-12-07T08:01:58;12.20;;;6.90;;
61385;SDS011;47256;18.904;-99.054;2022-12-07T08:04:26;9.40;;;5.50;;
61385;SDS011;47256;18.904;-99.054;2022-12-07T08:06:58;10.30;;;6.35;;
61385;SDS011;47256;18.904;-99.054;2022-12-07T08:09:25;11.73;;;5.85;;
61385;SDS011;47256;18.904;-99.054;2022-12-07T08:11:54;10.73;;;5.10;;
61385;SDS011;47256;18.904;-99.054;2022-12-07T08:14:22;9.57;;;5.38;;
61385;SDS011;47256;18.904;-99.054;2022-12-07T08:16:50;10.63;;;6.30;;
61385;SDS011;47256;18.904;-99.054;2022-12-07T08:19:18;10.02;;;6.47;;
61385;SDS011;47256;18.904;-99.054;2022-12-07T08:21:45;12.50;;;6.60;;
61385;SDS011;47256;18.904;-99.054;2022-12-07T08:24:14;13.70;;;6.00;;
61385;SDS011;47256;18.904;-99.054;2022-12-07T08:26:46;11.85;;;6.57;;
61385;SDS011;47256;18.904;-99.054;2022-12-07T08:29:18;8.50;;;5.55;;
61385;SDS011;47256;18.904;-99.054;2022-12-07T08:31:46;11.07;;;5.97;;
61385;SDS011;47256;18.904;-99.054;2022-12-07T08:34:17;10.15;;;5.95;;
61385;SDS011;47256;18.904;-99.054;2022-12-07T08:36:45;8.70;;;5.75;;
61385;SDS011;47256;18.904;-99.054;2022-12-07T08:39:12;12.10;;;6.63;;
61385;SDS011;47256;18.904;-99.054;2022-12-07T08:41:42;9.18;;;6.28;;
61385;SDS011;47256;18.904;-99.054;2022-12-07T08:44:09;14.98;;;5.95;;
61385;SDS011;47256;18.904;-99.054;2022-12-07T08:46:37;11.30;;;5.45;;
61385;SDS011;47256;18.904;-99.054;2022-12-07T08:49:13;10.13;;;5.90;;
61385;SDS011;47256;18.904;-99.054;2022-12-07T08:51:45;10.48;;;5.70;;
61385;SDS011;47256;18.904;-99.054;2022-12-07T08:54:15;10.25;;;5.88;;
61385;SDS011;47256;18.904;-99.054;2022-12-07T08:56:46;8.45;;;5.40;;
61385;SDS011;47256;18.904;-99.054;2022-12-07T08:59:15;11.48;;;5.63;;
61385;SDS011;47256;18.904;-99.054;2022-12-07T09:01:44;8.75;;;5.32;;
61385;SDS011;47256;18.904;-99.054;2022-12-07T09:04:13;9.90;;;6.40;;
61385;SDS011;47256;18.904;-99.054;2022-12-07T09:06:42;12.18;;;6.00;;
61385;SDS011;47256;18.904;-99.054;2022-12-07T09:09:10;10.43;;;5.05;;
61385;SDS011;47256;18.904;-99.054;2022-12-07T09:11:40;14.65;;;5.65;;
61385;SDS011;47256;18.904;-99.054;2022-12-07T09:14:07;8.38;;;4.90;;
61385;SDS011;47256;18.904;-99.054;2022-12-07T09:16:35;16.15;;;5.20;;
61385;SDS011;47256;18.904;-99.054;2022-12-07T09:19:02;21.60;;;5.90;;
61385;SDS011;47256;18.904;-99.054;2022-12-07T09:21:30;15.02;;;6.13;;
61385;SDS011;47256;18.904;-99.054;2022-12-07T09:23:57;8.05;;;5.00;;
61385;SDS011;47256;18.904;-99.054;2022-12-07T09:26:26;24.45;;;4.68;;
61385;SDS011;47256;18.904;-99.054;2022-12-07T09:28:59;9.13;;;5.15;;
61385;SDS011;47256;18.904;-99.054;2022-12-07T09:31:29;9.10;;;5.38;;
61385;SDS011;47256;18.904;-99.054;2022-12-07T09:33:59;12.73;;;4.28;;
61385;SDS011;47256;18.904;-99.054;2022-12-07T09:36:27;13.45;;;5.38;;
61385;SDS011;47256;18.904;-99.054;2022-12-07T09:38:55;24.38;;;6.20;;
61385;SDS011;47256;18.904;-99.054;2022-12-07T09:41:26;7.78;;;4.72;;
61385;SDS011;47256;18.904;-99.054;2022-12-07T09:43:58;8.93;;;5.00;;
61385;SDS011;47256;18.904;-99.054;2022-12-07T09:46:38;10.60;;;4.97;;
61385;SDS011;47256;18.904;-99.054;2022-12-07T09:49:17;7.88;;;4.75;;
61385;SDS011;47256;18.904;-99.054;2022-12-07T09:54:49;5.93;;;3.83;;
61385;SDS011;47256;18.904;-99.054;2022-12-07T09:57:20;13.05;;;5.03;;
61385;SDS011;47256;18.904;-99.054;2022-12-07T10:00:01;8.73;;;4.88;;
61385;SDS011;47256;18.904;-99.054;2022-12-07T10:02:37;15.77;;;4.70;;
61385;SDS011;47256;18.904;-99.054;2022-12-07T10:05:14;13.55;;;4.30;;
61385;SDS011;47256;18.904;-99.054;2022-12-07T10:07:46;9.48;;;4.25;;
61385;SDS011;47256;18.904;-99.054;2022-12-07T10:10:30;6.57;;;4.65;;
61385;SDS011;47256;18.904;-99.054;2022-12-07T10:13:00;7.55;;;4.65;;
61385;SDS011;47256;18.904;-99.054;2022-12-07T10:21:02;10.05;;;4.18;;
61385;SDS011;47256;18.904;-99.054;2022-12-07T10:24:04;10.18;;;4.97;;
61385;SDS011;47256;18.904;-99.054;2022-12-07T10:29:37;11.27;;;4.05;;
61385;SDS011;47256;18.904;-99.054;2022-12-07T10:34:43;6.87;;;4.10;;
61385;SDS011;47256;18.904;-99.054;2022-12-07T10:37:19;9.52;;;5.22;;
61385;SDS011;47256;18.904;-99.054;2022-12-07T10:42:22;7.03;;;4.57;;
61385;SDS011;47256;18.904;-99.054;2022-12-07T10:47:43;8.77;;;4.10;;
61385;SDS011;47256;18.904;-99.054;2022-12-07T10:56:14;7.40;;;4.53;;
61385;SDS011;47256;18.904;-99.054;2022-12-07T11:04:50;5.97;;;4.28;;
61385;SDS011;47256;18.904;-99.054;2022-12-07T11:18:27;15.68;;;4.07;;
61385;SDS011;47256;18.904;-99.054;2022-12-07T11:21:24;9.93;;;4.45;;
61385;SDS011;47256;18.904;-99.054;2022-12-07T11:24:15;22.35;;;4.45;;
61385;SDS011;47256;18.904;-99.054;2022-12-07T11:26:56;16.17;;;4.70;;
61385;SDS011;47256;18.904;-99.054;2022-12-07T11:34:59;7.13;;;3.67;;
61385;SDS011;47256;18.904;-99.054;2022-12-07T11:37:58;11.98;;;3.55;;
61385;SDS011;47256;18.904;-99.054;2022-12-07T11:40:34;9.02;;;4.55;;
61385;SDS011;47256;18.904;-99.054;2022-12-07T11:43:14;6.88;;;4.30;;
61385;SDS011;47256;18.904;-99.054;2022-12-07T11:46:10;7.90;;;4.43;;
61385;SDS011;47256;18.904;-99.054;2022-12-07T11:48:49;19.48;;;4.30;;
61385;SDS011;47256;18.904;-99.054;2022-12-07T11:51:28;6.53;;;3.83;;
61385;SDS011;47256;18.904;-99.054;2022-12-07T11:57:04;5.25;;;3.40;;
61385;SDS011;47256;18.904;-99.054;2022-12-07T11:59:45;10.10;;;3.88;;
61385;SDS011;47256;18.904;-99.054;2022-12-07T12:02:19;12.38;;;4.15;;
61385;SDS011;47256;18.904;-99.054;2022-12-07T12:05:13;7.72;;;3.33;;
61385;SDS011;47256;18.904;-99.054;2022-12-07T12:07:44;5.13;;;3.63;;
61385;SDS011;47256;18.904;-99.054;2022-12-07T12:10:24;5.00;;;3.05;;
61385;SDS011;47256;18.904;-99.054;2022-12-07T12:13:14;6.20;;;3.97;;
61385;SDS011;47256;18.904;-99.054;2022-12-07T12:21:42;7.07;;;4.47;;
61385;SDS011;47256;18.904;-99.054;2022-12-07T12:24:15;6.40;;;3.70;;
61385;SDS011;47256;18.904;-99.054;2022-12-07T12:29:23;4.22;;;3.47;;
61385;SDS011;47256;18.904;-99.054;2022-12-07T12:32:05;4.40;;;3.55;;
61385;SDS011;47256;18.904;-99.054;2022-12-07T12:42:44;5.53;;;3.72;;
61385;SDS011;47256;18.904;-99.054;2022-12-07T12:45:23;7.03;;;3.08;;
61385;SDS011;47256;18.904;-99.054;2022-12-07T12:48:44;5.17;;;3.10;;
61385;SDS011;47256;18.904;-99.054;2022-12-07T12:54:05;7.93;;;3.70;;
61385;SDS011;47256;18.904;-99.054;2022-12-07T13:02:24;8.80;;;3.58;;
61385;SDS011;47256;18.904;-99.054;2022-12-07T13:05:00;12.20;;;4.32;;
61385;SDS011;47256;18.904;-99.054;2022-12-07T13:15:46;8.43;;;4.18;;
61385;SDS011;47256;18.904;-99.054;2022-12-07T13:21:00;10.70;;;4.05;;
61385;SDS011;47256;18.904;-99.054;2022-12-07T13:23:39;17.42;;;4.97;;
61385;SDS011;47256;18.904;-99.054;2022-12-07T13:29:18;19.95;;;4.75;;
61385;SDS011;47256;18.904;-99.054;2022-12-07T13:31:56;18.65;;;4.90;;
61385;SDS011;47256;18.904;-99.054;2022-12-07T13:34:35;24.90;;;5.32;;
61385;SDS011;47256;18.904;-99.054;2022-12-07T13:37:26;22.67;;;7.95;;
61385;SDS011;47256;18.904;-99.054;2022-12-07T13:39:57;32.33;;;8.65;;
61385;SDS011;47256;18.904;-99.054;2022-12-07T13:42:44;34.78;;;11.18;;
61385;SDS011;47256;18.904;-99.054;2022-12-07T13:45:22;47.08;;;14.13;;
61385;SDS011;47256;18.904;-99.054;2022-12-07T13:48:16;42.25;;;15.38;;
61385;SDS011;47256;18.904;-99.054;2022-12-07T13:50:52;44.17;;;15.55;;
61385;SDS011;47256;18.904;-99.054;2022-12-07T13:53:23;49.35;;;18.35;;
61385;SDS011;47256;18.904;-99.054;2022-12-07T13:55:56;27.85;;;12.10;;
61385;SDS011;47256;18.904;-99.054;2022-12-07T13:58:29;26.80;;;9.63;;
61385;SDS011;47256;18.904;-99.054;2022-12-07T14:01:03;39.65;;;11.27;;
61385;SDS011;47256;18.904;-99.054;2022-12-07T14:03:33;43.83;;;10.55;;
61385;SDS011;47256;18.904;-99.054;2022-12-07T14:08:45;25.63;;;7.53;;
61385;SDS011;47256;18.904;-99.054;2022-12-07T14:11:14;33.70;;;7.47;;
61385;SDS011;47256;18.904;-99.054;2022-12-07T14:16:29;17.10;;;5.80;;
61385;SDS011;47256;18.904;-99.054;2022-12-07T14:18:59;12.27;;;6.00;;
61385;SDS011;47256;18.904;-99.054;2022-12-07T14:21:33;19.00;;;5.60;;
61385;SDS011;47256;18.904;-99.054;2022-12-07T14:24:17;10.20;;;4.80;;
61385;SDS011;47256;18.904;-99.054;2022-12-07T14:26:54;10.50;;;6.47;;
61385;SDS011;47256;18.904;-99.054;2022-12-07T14:31:59;15.80;;;6.32;;
61385;SDS011;47256;18.904;-99.054;2022-12-07T14:37:37;18.38;;;5.72;;
61385;SDS011;47256;18.904;-99.054;2022-12-07T14:40:06;13.10;;;5.68;;
61385;SDS011;47256;18.904;-99.054;2022-12-07T14:42:39;11.80;;;5.80;;
61385;SDS011;47256;18.904;-99.054;2022-12-07T14:45:15;8.48;;;4.72;;
61385;SDS011;47256;18.904;-99.054;2022-12-07T14:47:45;8.18;;;5.00;;
61385;SDS011;47256;18.904;-99.054;2022-12-07T14:50:13;16.70;;;5.82;;
61385;SDS011;47256;18.904;-99.054;2022-12-07T14:52:45;11.02;;;6.45;;
61385;SDS011;47256;18.904;-99.054;2022-12-07T14:55:37;8.93;;;5.13;;
61385;SDS011;47256;18.904;-99.054;2022-12-07T14:58:06;29.17;;;7.05;;
61385;SDS011;47256;18.904;-99.054;2022-12-07T15:00:41;10.43;;;6.07;;
61385;SDS011;47256;18.904;-99.054;2022-12-07T15:03:09;11.05;;;6.68;;
61385;SDS011;47256;18.904;-99.054;2022-12-07T15:05:41;14.05;;;4.63;;
61385;SDS011;47256;18.904;-99.054;2022-12-07T15:08:12;15.82;;;5.93;;
61385;SDS011;47256;18.904;-99.054;2022-12-07T15:10:40;12.15;;;5.32;;
61385;SDS011;47256;18.904;-99.054;2022-12-07T15:13:08;20.38;;;5.80;;
61385;SDS011;47256;18.904;-99.054;2022-12-07T15:15:54;12.45;;;4.93;;
61385;SDS011;47256;18.904;-99.054;2022-12-07T15:18:27;14.43;;;4.95;;
61385;SDS011;47256;18.904;-99.054;2022-12-07T15:20:54;18.15;;;5.20;;
61385;SDS011;47256;18.904;-99.054;2022-12-07T15:23:22;9.55;;;4.65;;
61385;SDS011;47256;18.904;-99.054;2022-12-07T15:25:50;20.67;;;4.38;;
61385;SDS011;47256;18.904;-99.054;2022-12-07T15:28:21;8.30;;;3.65;;
61385;SDS011;47256;18.904;-99.054;2022-12-07T15:30:51;11.45;;;4.63;;
61385;SDS011;47256;18.904;-99.054;2022-12-07T15:33:18;5.88;;;3.75;;
61385;SDS011;47256;18.904;-99.054;2022-12-07T15:35:46;7.95;;;3.83;;
61385;SDS011;47256;18.904;-99.054;2022-12-07T15:38:13;11.50;;;4.82;;
61385;SDS011;47256;18.904;-99.054;2022-12-07T15:40:41;8.68;;;4.22;;
61385;SDS011;47256;18.904;-99.054;2022-12-07T15:43:12;8.98;;;4.30;;
61385;SDS011;47256;18.904;-99.054;2022-12-07T15:45:58;15.07;;;5.80;;
61385;SDS011;47256;18.904;-99.054;2022-12-07T15:48:28;18.45;;;5.22;;
61385;SDS011;47256;18.904;-99.054;2022-12-07T15:51:07;14.63;;;5.80;;
61385;SDS011;47256;18.904;-99.054;2022-12-07T15:53:35;17.38;;;6.30;;
61385;SDS011;47256;18.904;-99.054;2022-12-07T15:56:05;11.50;;;6.13;;
61385;SDS011;47256;18.904;-99.054;2022-12-07T15:58:34;23.27;;;6.85;;
61385;SDS011;47256;18.904;-99.054;2022-12-07T16:01:12;17.13;;;7.05;;
61385;SDS011;47256;18.904;-99.054;2022-12-07T16:03:43;28.25;;;7.22;;
61385;SDS011;47256;18.904;-99.054;2022-12-07T16:06:17;22.13;;;8.23;;
61385;SDS011;47256;18.904;-99.054;2022-12-07T16:08:50;23.50;;;6.57;;
61385;SDS011;47256;18.904;-99.054;2022-12-07T16:11:18;12.10;;;6.50;;
61385;SDS011;47256;18.904;-99.054;2022-12-07T16:13:48;16.10;;;5.72;;
61385;SDS011;47256;18.904;-99.054;2022-12-07T16:16:17;15.65;;;5.22;;
61385;SDS011;47256;18.904;-99.054;2022-12-07T16:18:46;8.82;;;4.85;;
61385;SDS011;47256;18.904;-99.054;2022-12-07T16:21:15;11.18;;;6.43;;
61385;SDS011;47256;18.904;-99.054;2022-12-07T16:23:44;10.27;;;5.93;;
61385;SDS011;47256;18.904;-99.054;2022-12-07T16:26:13;10.57;;;5.00;;
61385;SDS011;47256;18.904;-99.054;2022-12-07T16:28:49;22.13;;;5.35;;
61385;SDS011;47256;18.904;-99.054;2022-12-07T16:31:20;7.07;;;4.28;;
61385;SDS011;47256;18.904;-99.054;2022-12-07T16:33:48;8.75;;;4.40;;
61385;SDS011;47256;18.904;-99.054;2022-12-07T16:36:22;9.90;;;4.63;;
61385;SDS011;47256;18.904;-99.054;2022-12-07T16:38:51;8.93;;;5.15;;
61385;SDS011;47256;18.904;-99.054;2022-12-07T16:41:22;7.97;;;5.03;;
61385;SDS011;47256;18.904;-99.054;2022-12-07T16:43:49;9.48;;;4.45;;
61385;SDS011;47256;18.904;-99.054;2022-12-07T16:46:17;7.35;;;3.65;;
61385;SDS011;47256;18.904;-99.054;2022-12-07T16:48:44;8.27;;;5.00;;
61385;SDS011;47256;18.904;-99.054;2022-12-07T16:51:13;8.30;;;4.78;;
61385;SDS011;47256;18.904;-99.054;2022-12-07T16:53:42;6.80;;;4.00;;
61385;SDS011;47256;18.904;-99.054;2022-12-07T16:56:13;9.25;;;3.53;;
61385;SDS011;47256;18.904;-99.054;2022-12-07T16:58:46;7.50;;;4.45;;
61385;SDS011;47256;18.904;-99.054;2022-12-07T17:01:16;6.28;;;3.17;;
61385;SDS011;47256;18.904;-99.054;2022-12-07T17:03:46;9.32;;;4.55;;
61385;SDS011;47256;18.904;-99.054;2022-12-07T17:06:15;7.10;;;4.13;;
61385;SDS011;47256;18.904;-99.054;2022-12-07T17:11:39;13.93;;;3.78;;